KSAR/SAR METAR and TAF weather

Enter ICAO airport designator
Station Type Date Time Source
KSAR METAR 2019/12/09 00:35 UTC NOAA

KSAR 090035Z AUTO 17008G17KT 10SM OVC009 08/08 A2988 RMK AO2 T00810075


Station Type Date Time Source
KSAR Decoded METAR 2019/12/09 00:35 UTC NOAA

Sparta, Sparta Community-Hunter Field Airport, IL, United States (KSAR) 38-08-56N 089-41-55W
Dec 08, 2019 - 07:35 PM EST / 2019.12.09 0035 UTC
Wind: from the S (170 degrees) at 9 MPH (8 KT) gusting to 20 MPH (17 KT):0
Visibility: 10 mile(s):0
Sky conditions: overcast
Temperature: 46.6 F (8.1 C)
Dew Point: 45.5 F (7.5 C)
Relative Humidity: 95%
Pressure (altimeter): 29.88 in. Hg (1011 hPa)
ob: KSAR 090035Z AUTO 17008G17KT 10SM OVC009 08/08 A2988 RMK AO2 T00810075
cycle: 0

Station Type Date Time Source
KSAR TAF UTC NOAA

Error!

Example: see airport list